createdAt,value
2018-12-25T00:00:18.926Z,17.33
2018-12-25T00:02:47.957Z,16.90
2018-12-25T00:05:17.037Z,17.53
2018-12-25T00:07:46.061Z,17.20
2018-12-25T00:10:15.101Z,16.97
2018-12-25T00:12:44.147Z,14.87
2018-12-25T00:15:13.191Z,15.20
2018-12-25T00:17:42.229Z,14.90
2018-12-25T00:20:11.104Z,15.57
2018-12-25T00:22:40.132Z,18.33
2018-12-25T00:25:09.131Z,16.73
2018-12-25T00:27:38.093Z,15.43
2018-12-25T00:30:07.620Z,16.63
2018-12-25T00:32:36.582Z,13.20
2018-12-25T00:35:05.676Z,13.13
2018-12-25T00:37:34.593Z,15.87
2018-12-25T00:40:03.632Z,13.50
2018-12-25T00:42:32.572Z,18.83
2018-12-25T00:45:01.505Z,13.50
2018-12-25T00:47:30.412Z,14.40
2018-12-25T00:49:59.441Z,13.90
2018-12-25T00:52:28.284Z,15.87
2018-12-25T00:54:57.124Z,11.87
2018-12-25T00:57:26.092Z,13.90
2018-12-25T00:59:57.381Z,19.13
2018-12-25T01:02:26.270Z,12.40
2018-12-25T01:04:55.231Z,15.03
2018-12-25T01:07:24.253Z,13.10
2018-12-25T01:09:53.244Z,16.70
2018-12-25T01:12:22.190Z,11.73
2018-12-25T01:14:51.404Z,14.17
2018-12-25T01:17:20.345Z,12.33
2018-12-25T01:19:49.257Z,14.50
2018-12-25T01:22:18.406Z,11.33
2018-12-25T01:24:47.350Z,10.43
2018-12-25T01:27:16.315Z,12.77
2018-12-25T01:29:45.140Z,11.73
2018-12-25T01:32:14.092Z,11.13
2018-12-25T01:34:43.032Z,10.80
2018-12-25T01:37:11.960Z,14.67
2018-12-25T01:39:40.808Z,10.30
2018-12-25T01:42:09.774Z,12.43
2018-12-25T01:44:39.026Z,12.90
2018-12-25T01:47:08.038Z,14.73
2018-12-25T01:49:36.940Z,10.00
2018-12-25T01:52:05.989Z,11.70
2018-12-25T01:54:35.033Z,14.87
2018-12-25T01:57:04.052Z,14.13
2018-12-25T01:59:33.053Z,14.00
2018-12-25T02:02:02.015Z,10.53
2018-12-25T02:04:31.047Z,12.73
2018-12-25T02:07:00.108Z,11.23
2018-12-25T02:09:28.970Z,11.40
2018-12-25T02:11:57.977Z,15.17
2018-12-25T02:14:27.009Z,10.93
2018-12-25T02:16:56.027Z,14.53
2018-12-25T02:19:25.181Z,15.07
2018-12-25T02:21:54.017Z,13.43
2018-12-25T02:24:22.946Z,15.03
2018-12-25T02:26:51.923Z,11.67
2018-12-25T02:29:20.782Z,14.93
2018-12-25T02:31:49.802Z,13.27
2018-12-25T02:34:18.829Z,13.53
2018-12-25T02:36:47.727Z,17.13
2018-12-25T02:39:16.730Z,15.40
2018-12-25T02:41:45.761Z,14.50
2018-12-25T02:44:14.681Z,18.23
2018-12-25T02:46:43.694Z,15.80
2018-12-25T02:49:12.812Z,13.37
2018-12-25T02:51:41.657Z,15.83
2018-12-25T02:54:10.609Z,20.40
2018-12-25T02:56:39.631Z,14.43
2018-12-25T02:59:08.728Z,15.13
2018-12-25T03:01:37.773Z,13.70
2018-12-25T03:04:06.923Z,11.20
2018-12-25T03:06:36.016Z,12.90
2018-12-25T03:09:06.811Z,14.70
2018-12-25T03:11:37.267Z,14.23
2018-12-25T03:14:06.224Z,14.07
2018-12-25T03:16:35.172Z,19.67
2018-12-25T03:19:04.092Z,15.90
2018-12-25T03:21:33.109Z,14.67
2018-12-25T03:24:02.108Z,13.27
2018-12-25T03:26:31.141Z,13.80
2018-12-25T03:29:00.089Z,19.30
2018-12-25T03:31:29.041Z,15.10
2018-12-25T03:33:58.049Z,12.33
2018-12-25T03:36:27.181Z,15.37
2018-12-25T03:38:56.135Z,16.60
2018-12-25T03:41:25.144Z,14.07
2018-12-25T03:44:12.192Z,16.00
2018-12-25T03:46:41.125Z,15.27
2018-12-25T03:49:10.064Z,15.57
2018-12-25T03:51:38.965Z,13.40
2018-12-25T03:54:07.940Z,15.13
2018-12-25T03:56:36.838Z,14.33
2018-12-25T03:59:05.797Z,13.87
2018-12-25T04:01:34.784Z,15.70
2018-12-25T04:04:03.785Z,16.57
2018-12-25T04:06:32.819Z,17.27
2018-12-25T04:09:01.750Z,17.47
2018-12-25T04:11:31.854Z,15.43
2018-12-25T04:14:00.804Z,16.33
2018-12-25T04:16:31.216Z,16.20
2018-12-25T04:19:01.172Z,12.33
2018-12-25T04:21:31.427Z,15.60
2018-12-25T04:24:00.436Z,16.20
2018-12-25T04:26:29.374Z,15.60
2018-12-25T04:28:58.396Z,13.60
2018-12-25T04:31:27.383Z,12.77
2018-12-25T04:33:56.321Z,16.60
2018-12-25T04:36:25.368Z,14.80
2018-12-25T04:38:54.390Z,14.80
2018-12-25T04:41:23.252Z,13.77
2018-12-25T04:43:52.300Z,13.27
2018-12-25T04:46:21.312Z,15.87
2018-12-25T04:48:50.234Z,15.70
2018-12-25T04:51:19.376Z,13.17
2018-12-25T04:53:48.256Z,15.43
2018-12-25T04:56:17.217Z,17.57
2018-12-25T04:58:46.552Z,18.50
2018-12-25T05:01:15.502Z,14.50
2018-12-25T05:03:44.520Z,13.50
2018-12-25T05:06:13.951Z,14.97
2018-12-25T05:08:42.909Z,16.17
2018-12-25T05:11:11.773Z,14.83
2018-12-25T05:13:40.792Z,21.70
2018-12-25T05:16:09.866Z,18.20
2018-12-25T05:18:38.864Z,18.60
2018-12-25T05:21:07.913Z,18.13
2018-12-25T05:23:36.836Z,18.70
2018-12-25T05:26:05.844Z,17.23
2018-12-25T05:28:34.780Z,18.47
2018-12-25T05:31:03.815Z,16.50
2018-12-25T05:33:32.764Z,18.03
2018-12-25T05:36:01.764Z,18.90
2018-12-25T05:38:30.800Z,21.33
2018-12-25T05:40:59.734Z,16.33
2018-12-25T05:43:28.797Z,19.13
2018-12-25T05:45:57.788Z,19.27
2018-12-25T05:48:26.785Z,16.87
2018-12-25T05:50:55.673Z,17.73
2018-12-25T05:53:25.588Z,19.80
2018-12-25T05:55:54.585Z,16.60
2018-12-25T05:58:23.626Z,18.97
2018-12-25T06:00:52.700Z,19.13
2018-12-25T06:03:21.640Z,20.97
2018-12-25T06:05:50.555Z,22.77
2018-12-25T06:08:19.482Z,20.33
2018-12-25T06:10:48.884Z,17.70
2018-12-25T06:13:17.970Z,18.10
2018-12-25T06:15:46.986Z,20.80
2018-12-25T06:18:16.008Z,16.40
2018-12-25T06:20:54.945Z,17.07
2018-12-25T06:23:18.364Z,15.80
2018-12-25T06:25:47.364Z,15.73
2018-12-25T06:28:18.525Z,15.37
2018-12-25T06:30:47.457Z,18.20
2018-12-25T06:33:16.464Z,16.97
2018-12-25T06:35:45.591Z,18.80
2018-12-25T06:38:14.615Z,15.63
2018-12-25T06:40:43.548Z,17.20
2018-12-25T06:43:12.528Z,15.10
2018-12-25T06:45:41.460Z,13.50
2018-12-25T06:48:10.413Z,15.47
2018-12-25T06:50:39.344Z,16.13
2018-12-25T06:53:08.406Z,14.10
2018-12-25T06:55:37.324Z,17.53
2018-12-25T06:58:06.192Z,14.70
2018-12-25T07:00:35.372Z,16.67
2018-12-25T07:03:04.345Z,17.30
2018-12-25T07:05:33.307Z,17.17
2018-12-25T07:08:02.324Z,17.23
2018-12-25T07:10:31.352Z,17.27
2018-12-25T07:13:00.301Z,17.37
2018-12-25T07:15:33.260Z,12.47
2018-12-25T07:17:59.968Z,17.33
2018-12-25T07:20:29.047Z,16.10
2018-12-25T07:22:58.024Z,13.60
2018-12-25T07:25:26.970Z,16.20
2018-12-25T07:27:55.840Z,19.00
2018-12-25T07:30:24.872Z,17.10
2018-12-25T07:32:53.821Z,19.97
2018-12-25T07:35:22.740Z,15.07
2018-12-25T07:37:51.758Z,17.83
2018-12-25T07:40:20.721Z,14.60
2018-12-25T07:42:49.704Z,15.37
2018-12-25T07:45:18.637Z,17.20
2018-12-25T07:47:47.692Z,17.30
2018-12-25T07:50:16.699Z,17.30
2018-12-25T07:52:45.731Z,15.83
2018-12-25T07:55:15.465Z,18.90
2018-12-25T07:57:44.504Z,16.57
2018-12-25T08:00:14.624Z,17.93
2018-12-25T08:02:43.613Z,16.07
2018-12-25T08:05:12.696Z,19.00
2018-12-25T08:07:41.660Z,18.50
2018-12-25T08:10:10.561Z,19.33
2018-12-25T08:12:39.504Z,17.30
2018-12-25T08:15:08.472Z,17.87
2018-12-25T08:17:37.364Z,16.50
2018-12-25T08:20:06.401Z,16.43
2018-12-25T08:22:35.362Z,17.83
2018-12-25T08:25:04.488Z,18.60
2018-12-25T08:27:33.444Z,17.07
2018-12-25T08:30:02.398Z,16.60
2018-12-25T08:32:31.339Z,18.40
2018-12-25T08:35:00.373Z,18.57
2018-12-25T08:37:29.327Z,19.77
2018-12-25T08:39:58.352Z,17.53
2018-12-25T08:42:27.289Z,23.17
2018-12-25T08:44:56.314Z,17.33
2018-12-25T08:47:25.285Z,20.67
2018-12-25T08:49:54.227Z,20.23
2018-12-25T08:52:23.589Z,20.57
2018-12-25T08:54:52.728Z,22.07
2018-12-25T08:57:21.736Z,21.17
2018-12-25T08:59:50.793Z,25.37
2018-12-25T09:02:19.814Z,22.27
2018-12-25T09:04:49.090Z,25.47
2018-12-25T09:07:18.035Z,21.57
2018-12-25T09:09:47.019Z,23.43
2018-12-25T09:12:15.894Z,22.87
2018-12-25T09:14:44.841Z,29.33
2018-12-25T09:17:13.788Z,21.27
2018-12-25T09:19:42.917Z,25.13
2018-12-25T09:22:11.875Z,22.70
2018-12-25T09:24:40.944Z,22.53
2018-12-25T09:27:09.868Z,25.63
2018-12-25T09:29:38.843Z,19.83
2018-12-25T09:32:07.890Z,22.93
2018-12-25T09:34:37.014Z,20.73
2018-12-25T09:37:05.952Z,22.23
2018-12-25T09:39:34.975Z,22.80
2018-12-25T09:42:03.997Z,23.70
2018-12-25T09:44:33.033Z,21.27
2018-12-25T09:47:02.343Z,19.60
2018-12-25T09:49:31.204Z,22.03
2018-12-25T09:52:00.208Z,23.03
2018-12-25T09:54:29.272Z,19.93
2018-12-25T09:56:58.144Z,22.23
2018-12-25T09:59:27.111Z,19.27
2018-12-25T10:01:56.214Z,19.87
2018-12-25T10:04:25.237Z,20.03
2018-12-25T10:06:54.272Z,23.17
2018-12-25T10:09:23.164Z,22.67
2018-12-25T10:11:52.110Z,24.77
2018-12-25T10:14:21.053Z,25.80
2018-12-25T10:16:50.064Z,26.23
2018-12-25T10:19:19.144Z,20.87
2018-12-25T10:21:48.098Z,20.20
2018-12-25T10:24:17.081Z,18.47
2018-12-25T10:26:46.037Z,17.97
2018-12-25T10:29:15.073Z,24.10
2018-12-25T10:31:44.005Z,20.33
2018-12-25T10:34:12.967Z,19.73
2018-12-25T10:36:41.911Z,17.83
2018-12-25T10:39:10.965Z,19.43
2018-12-25T10:41:39.425Z,19.77
2018-12-25T10:44:07.868Z,15.83
2018-12-25T10:46:36.432Z,19.27
2018-12-25T10:49:04.896Z,22.60
2018-12-25T10:51:33.367Z,21.47
2018-12-25T10:54:01.796Z,23.73
2018-12-25T10:56:30.300Z,21.33
2018-12-25T10:58:58.676Z,22.40
2018-12-25T11:01:30.680Z,23.47
2018-12-25T11:03:59.684Z,22.20
2018-12-25T11:06:28.683Z,21.70
2018-12-25T11:08:57.664Z,19.67
2018-12-25T11:11:26.722Z,21.67
2018-12-25T11:13:55.745Z,21.90
2018-12-25T11:16:24.872Z,23.77
2018-12-25T11:18:53.923Z,25.30
2018-12-25T11:21:22.810Z,26.80
2018-12-25T11:23:51.872Z,23.63
2018-12-25T11:26:20.733Z,25.40
2018-12-25T11:28:49.761Z,24.03
2018-12-25T11:31:18.779Z,20.70
2018-12-25T11:33:47.712Z,23.73
2018-12-25T11:36:16.697Z,22.93
2018-12-25T11:38:45.608Z,25.70
2018-12-25T11:41:14.630Z,26.83
2018-12-25T11:43:43.628Z,23.03
2018-12-25T11:46:15.525Z,26.53
2018-12-25T11:48:44.446Z,22.90
2018-12-25T11:51:13.393Z,23.33
2018-12-25T11:53:42.288Z,24.03
2018-12-25T11:56:11.170Z,26.03
2018-12-25T11:58:40.183Z,24.07
2018-12-25T12:01:09.161Z,24.40
2018-12-25T12:03:39.071Z,17.40
2018-12-25T12:06:08.038Z,18.27
2018-12-25T12:08:37.081Z,17.00
2018-12-25T12:11:06.094Z,18.23
2018-12-25T12:13:35.040Z,18.37
2018-12-25T12:16:04.117Z,19.73
2018-12-25T12:18:33.189Z,18.27
2018-12-25T12:21:02.488Z,21.30
2018-12-25T12:23:31.527Z,20.37
2018-12-25T12:26:00.469Z,20.33
2018-12-25T12:28:29.496Z,19.23
2018-12-25T12:30:58.384Z,19.73
2018-12-25T12:33:28.236Z,17.67
2018-12-25T12:35:57.880Z,18.67
2018-12-25T12:38:26.988Z,18.77
2018-12-25T12:40:55.833Z,19.20
2018-12-25T12:43:24.775Z,20.50
2018-12-25T12:45:53.985Z,18.43
2018-12-25T12:48:22.962Z,18.87
2018-12-25T12:50:52.555Z,21.43
2018-12-25T12:53:21.533Z,16.37
2018-12-25T12:55:50.528Z,17.37
2018-12-25T12:58:20.773Z,19.07
2018-12-25T13:00:50.004Z,20.10
2018-12-25T13:03:19.390Z,14.33
2018-12-25T13:05:48.939Z,14.57
2018-12-25T13:08:18.003Z,15.07
2018-12-25T13:10:46.954Z,11.60
2018-12-25T13:13:15.985Z,13.70
2018-12-25T13:15:45.098Z,10.83
2018-12-25T13:18:14.105Z,11.53
2018-12-25T13:20:42.964Z,10.57
2018-12-25T13:23:11.931Z,12.50
2018-12-25T13:25:40.981Z,11.13
2018-12-25T13:28:09.874Z,13.03
2018-12-25T13:30:38.853Z,11.47
2018-12-25T13:33:07.730Z,13.00
2018-12-25T13:35:36.741Z,12.50
2018-12-25T13:38:05.930Z,12.13
2018-12-25T13:40:34.978Z,13.10
2018-12-25T13:43:04.002Z,12.30
2018-12-25T13:45:33.054Z,12.30
2018-12-25T13:48:02.108Z,15.03
2018-12-25T13:50:31.047Z,12.93
2018-12-25T13:53:02.952Z,14.07
2018-12-25T13:55:30.729Z,15.07
2018-12-25T13:57:59.732Z,12.67
2018-12-25T14:00:28.768Z,13.50
2018-12-25T14:02:57.765Z,12.47
2018-12-25T14:05:26.788Z,14.33
2018-12-25T14:07:55.729Z,14.87
2018-12-25T14:10:24.669Z,17.90
2018-12-25T14:12:53.666Z,18.47
2018-12-25T14:15:24.656Z,16.70
2018-12-25T14:17:53.245Z,16.00
2018-12-25T14:20:22.160Z,16.47
2018-12-25T14:22:51.666Z,17.13
2018-12-25T14:25:20.639Z,16.43
2018-12-25T14:27:49.612Z,19.37
2018-12-25T14:30:18.608Z,24.97
2018-12-25T14:32:48.118Z,18.23
2018-12-25T14:35:17.168Z,18.60
2018-12-25T14:37:46.104Z,19.63
2018-12-25T14:40:15.102Z,22.83
2018-12-25T14:42:44.077Z,22.40
2018-12-25T14:45:13.125Z,19.97
2018-12-25T14:47:42.030Z,20.67
2018-12-25T14:50:11.010Z,19.47
2018-12-25T14:52:40.318Z,18.10
2018-12-25T14:55:09.357Z,21.47
2018-12-25T14:57:38.392Z,23.23
2018-12-25T15:00:08.708Z,22.33
2018-12-25T15:02:37.753Z,22.63
2018-12-25T15:05:06.825Z,27.80
2018-12-25T15:07:35.936Z,24.97
2018-12-25T15:10:05.548Z,22.23
2018-12-25T15:12:34.393Z,23.43
2018-12-25T15:15:03.544Z,29.83
2018-12-25T15:17:32.484Z,25.30
2018-12-25T15:20:01.438Z,25.40
2018-12-25T15:22:30.340Z,23.80
2018-12-25T15:24:59.288Z,22.27
2018-12-25T15:27:28.328Z,24.40
2018-12-25T15:29:57.415Z,21.33
2018-12-25T15:32:26.458Z,23.10
2018-12-25T15:34:56.897Z,24.33
2018-12-25T15:37:25.893Z,24.80
2018-12-25T15:39:54.952Z,21.70
2018-12-25T15:42:23.880Z,20.33
2018-12-25T15:44:52.865Z,28.47
2018-12-25T15:47:21.889Z,21.53
2018-12-25T15:49:51.710Z,21.37
2018-12-25T15:52:20.829Z,18.20
2018-12-25T15:54:49.950Z,21.83
2018-12-25T15:57:18.860Z,24.03
2018-12-25T15:59:47.907Z,22.07
2018-12-25T16:02:50.152Z,22.07
2018-12-25T16:05:19.159Z,21.00
2018-12-25T16:07:48.077Z,22.37
2018-12-25T16:10:17.816Z,20.10
2018-12-25T16:12:46.881Z,21.87
2018-12-25T16:15:15.965Z,25.27
2018-12-25T16:17:44.902Z,21.57
2018-12-25T16:20:13.920Z,18.87
2018-12-25T16:22:42.960Z,29.23
2018-12-25T16:25:11.830Z,21.83
2018-12-25T16:27:40.748Z,23.37
2018-12-25T16:30:10.146Z,22.93
2018-12-25T16:32:39.109Z,22.67
2018-12-25T16:35:08.420Z,22.87
2018-12-25T16:37:37.313Z,22.17
2018-12-25T16:40:07.983Z,20.57
2018-12-25T16:42:38.090Z,22.73
2018-12-25T16:45:07.264Z,20.20
2018-12-25T16:47:36.102Z,20.33
2018-12-25T16:50:05.161Z,25.47
2018-12-25T16:52:34.118Z,22.50
2018-12-25T16:55:03.118Z,24.47
2018-12-25T16:57:32.132Z,21.17
2018-12-25T17:00:01.220Z,27.07
2018-12-25T17:02:30.240Z,23.50
2018-12-25T17:04:59.144Z,22.63
2018-12-25T17:07:28.131Z,22.47
2018-12-25T17:09:57.183Z,27.63
2018-12-25T17:12:26.276Z,21.97
2018-12-25T17:14:55.232Z,24.53
2018-12-25T17:17:24.147Z,25.17
2018-12-25T17:19:53.253Z,22.43
2018-12-25T17:22:22.122Z,23.80
2018-12-25T17:24:51.150Z,30.50
2018-12-25T17:27:20.150Z,26.90
2018-12-25T17:29:49.149Z,23.83
2018-12-25T17:32:17.999Z,24.43
2018-12-25T17:34:47.036Z,26.00
2018-12-25T17:37:16.004Z,32.00
2018-12-25T17:39:44.882Z,30.80
2018-12-25T17:42:13.777Z,31.90
2018-12-25T17:44:42.643Z,28.27
2018-12-25T17:47:11.561Z,29.67
2018-12-25T17:49:40.638Z,34.03
2018-12-25T17:52:09.585Z,34.13
2018-12-25T17:54:38.497Z,30.20
2018-12-25T17:57:07.533Z,27.00
2018-12-25T17:59:36.488Z,29.13
2018-12-25T18:02:05.494Z,32.80
2018-12-25T18:04:34.428Z,28.43
2018-12-25T18:07:03.388Z,26.57
2018-12-25T18:09:32.314Z,31.60
2018-12-25T18:12:01.379Z,33.87
2018-12-25T18:14:30.444Z,34.03
2018-12-25T18:16:59.476Z,32.07
2018-12-25T18:19:28.463Z,34.23
2018-12-25T18:21:57.388Z,39.70
2018-12-25T18:24:26.345Z,37.87
2018-12-25T18:26:55.381Z,39.20
2018-12-25T18:29:24.487Z,37.43
2018-12-25T18:31:53.356Z,37.43
2018-12-25T18:34:22.440Z,40.10
2018-12-25T18:36:51.416Z,40.13
2018-12-25T18:39:20.309Z,36.57
2018-12-25T18:41:49.371Z,42.20
2018-12-25T18:44:18.234Z,40.07
2018-12-25T18:46:47.243Z,39.97
2018-12-25T18:49:16.185Z,42.00
2018-12-25T18:51:45.042Z,38.03
2018-12-25T18:54:14.032Z,39.03
2018-12-25T18:56:43.073Z,34.50
2018-12-25T18:59:11.917Z,35.77
2018-12-25T19:01:41.657Z,36.63
2018-12-25T19:04:13.743Z,36.43
2018-12-25T19:06:42.653Z,32.30
2018-12-25T19:09:11.637Z,35.60
2018-12-25T19:11:40.668Z,32.97
2018-12-25T19:14:09.667Z,35.30
2018-12-25T19:16:38.661Z,39.37
2018-12-25T19:19:07.556Z,32.77
2018-12-25T19:21:36.524Z,33.77
2018-12-25T19:24:05.548Z,29.37
2018-12-25T19:26:34.683Z,32.23
2018-12-25T19:29:03.649Z,30.07
2018-12-25T19:31:32.632Z,35.97
2018-12-25T19:34:01.563Z,30.40
2018-12-25T19:36:30.656Z,30.73
2018-12-25T19:38:59.647Z,29.30
2018-12-25T19:41:28.747Z,27.37
2018-12-25T19:43:57.792Z,31.13
2018-12-25T19:46:26.883Z,28.47
2018-12-25T19:48:55.956Z,34.53
2018-12-25T19:51:24.907Z,34.17
2018-12-25T19:53:53.948Z,31.70
2018-12-25T19:56:23.071Z,37.50
2018-12-25T19:58:52.217Z,31.10
2018-12-25T20:01:21.300Z,30.30
2018-12-25T20:04:02.661Z,27.63
2018-12-25T20:07:11.726Z,26.30
2018-12-25T20:10:27.288Z,27.60
2018-12-25T20:13:32.416Z,27.90
2018-12-25T20:16:38.589Z,22.07
2018-12-25T20:19:35.249Z,25.70
2018-12-25T20:22:52.960Z,23.57
2018-12-25T20:26:15.408Z,26.12
2018-12-25T20:29:06.912Z,25.07
2018-12-25T20:32:05.584Z,22.90
2018-12-25T20:35:13.039Z,23.73
2018-12-25T20:38:16.560Z,25.13
2018-12-25T20:41:39.205Z,19.83
2018-12-25T20:44:52.862Z,21.70
2018-12-25T20:47:58.309Z,25.53
2018-12-25T20:50:56.766Z,24.43
2018-12-25T20:54:01.809Z,23.33
2018-12-25T20:57:24.015Z,26.20
2018-12-25T21:00:37.555Z,23.87
2018-12-25T21:03:36.231Z,28.67
2018-12-25T21:06:42.019Z,23.40
2018-12-25T21:09:47.056Z,22.97
2018-12-25T21:12:57.656Z,26.50
2018-12-25T21:16:10.668Z,26.80
2018-12-25T21:19:31.729Z,24.90
2018-12-25T21:22:35.929Z,26.93
2018-12-25T21:25:41.080Z,28.87
2018-12-25T21:28:08.545Z,21.97
2018-12-25T21:30:37.656Z,24.23
2018-12-25T21:33:06.815Z,26.50
2018-12-25T21:35:35.833Z,24.10
2018-12-25T21:38:04.940Z,26.07
2018-12-25T21:40:34.038Z,30.23
2018-12-25T21:43:03.089Z,28.97
2018-12-25T21:45:32.126Z,28.73
2018-12-25T21:48:01.364Z,31.13
2018-12-25T21:50:30.496Z,30.57
2018-12-25T21:52:59.518Z,31.97
2018-12-25T21:55:28.420Z,24.77
2018-12-25T21:57:58.005Z,31.87
2018-12-25T22:00:30.327Z,32.60
2018-12-25T22:02:59.768Z,31.97
2018-12-25T22:05:28.781Z,34.37
2018-12-25T22:07:57.740Z,31.17
2018-12-25T22:10:26.838Z,34.83
2018-12-25T22:12:55.981Z,35.90
2018-12-25T22:15:24.898Z,31.27
2018-12-25T22:17:53.868Z,33.83
2018-12-25T22:20:41.129Z,29.27
2018-12-25T22:23:10.306Z,31.70
2018-12-25T22:25:39.444Z,32.13
2018-12-25T22:28:08.577Z,32.43
2018-12-25T22:30:37.657Z,35.47
2018-12-25T22:33:06.712Z,29.73
2018-12-25T22:35:35.629Z,36.30
2018-12-25T22:38:04.956Z,34.10
2018-12-25T22:40:33.985Z,33.37
2018-12-25T22:43:02.930Z,32.27
2018-12-25T22:45:32.023Z,35.50
2018-12-25T22:48:00.952Z,30.17
2018-12-25T22:50:29.994Z,31.47
2018-12-25T22:52:59.074Z,34.70
2018-12-25T22:55:35.597Z,31.87
2018-12-25T22:57:58.805Z,32.30
2018-12-25T23:00:28.069Z,34.90
2018-12-25T23:02:57.236Z,31.07
2018-12-25T23:05:26.313Z,30.43
2018-12-25T23:07:55.353Z,32.53
2018-12-25T23:10:24.373Z,36.43
2018-12-25T23:12:53.390Z,32.73
2018-12-25T23:15:22.417Z,33.03
2018-12-25T23:17:51.368Z,33.33
2018-12-25T23:20:28.482Z,32.17
2018-12-25T23:22:51.220Z,38.50
2018-12-25T23:25:20.248Z,39.00
2018-12-25T23:27:49.313Z,32.87
2018-12-25T23:30:18.372Z,35.50
2018-12-25T23:32:47.532Z,37.10
2018-12-25T23:35:16.510Z,35.30
2018-12-25T23:37:45.606Z,35.03
2018-12-25T23:40:14.635Z,35.40
2018-12-25T23:42:43.730Z,37.03
2018-12-25T23:45:12.698Z,35.10
2018-12-25T23:47:41.821Z,32.60
2018-12-25T23:50:10.847Z,36.87
2018-12-25T23:52:39.848Z,33.93
2018-12-25T23:55:08.921Z,34.20
2018-12-25T23:57:37.929Z,38.80
